METAR Analyzer

一覧表示

Hello, Guest. (Login)

RJOO/ITM  -  大阪/伊丹

観測日時
2022-09-30 05:00 (UTC) (79分前)
気温
29
露点
17
湿数
12
相対湿度
48.4%
QNH
1013.2hPa
推定現地気圧
1011.8hPa
推定海面気圧
1013.2hPa
体感温度
23
(無風時)
25.9
HI
29.5
気温前日比
+3
体感温度前日比
+3.7
HI前日比
+3.6
水平視程
>10000m
鉛直視程
データなし
雲底高度
No dense clouds
V/I
VMC (VFR)
RVR
No RVR data
卓越風
5kt from 60° (20° ~ 100°)
ガスト
No gust
降水
報告なし
その他の天気
報告なし
少しの(2/8) 積雲 @ 2500ft AGL

RJOO 300500Z 06005KT 020V100 9999 FEW025 29/17 Q1013 RMK 2CU025 A2992

RJBB/KIX  -  大阪/関西

観測日時
2022-09-30 05:30 (UTC) (49分前)
気温
27
露点
19
湿数
8
相対湿度
61.6%
QNH
1013hPa
推定現地気圧
1012.4hPa
推定海面気圧
1013.0hPa
体感温度
22
(無風時)
25.4
HI
28.2
気温前日比
+2
体感温度前日比
+2.9
HI前日比
+3
水平視程
>10000m
鉛直視程
データなし
雲底高度
No dense clouds
V/I
VMC (VFR)
RVR
No RVR data
卓越風
4kt from 290°
ガスト
No gust
降水
報告なし
その他の天気
報告なし
少しの雲 @ 2000ft AGL

RJBB 300530Z 29004KT 9999 FEW020 27/19 Q1013 BECMG 33006KT

RJBE/UKB  -  神戸

観測日時
2022-09-30 05:00 (UTC) (79分前)
気温
28
露点
18
湿数
10
相対湿度
54.6%
QNH
1013hPa
推定現地気圧
1012.4hPa
推定海面気圧
1013.0hPa
体感温度
21.9
(無風時)
25.6
HI
28.9
気温前日比
+3
体感温度前日比
+3.1
HI前日比
+3.7
水平視程
>10000m
鉛直視程
データなし
雲底高度
No dense clouds
V/I
VMC (VFR)
RVR
No RVR data
卓越風
7kt from 90°
ガスト
No gust
降水
報告なし
その他の天気
報告なし
少しの雲 @ 2500ft AGL

RJBE 300500Z 09007KT 9999 FEW025 28/18 Q1013

RJBT/TKG  -  但馬

観測日時
2022-09-30 05:00 (UTC) (79分前)
気温
26
露点
17
湿数
9
相対湿度
57.6%
QNH
1014hPa
推定現地気圧
993.0hPa
推定海面気圧
1013.1hPa
体感温度
21.8
(無風時)
24.4
HI
26.2
気温前日比
+2
体感温度前日比
+3.6
HI前日比
+1.9
水平視程
>10000m
鉛直視程
データなし
雲底高度
No dense clouds
V/I
VMC (VFR)
RVR
No RVR data
卓越風
2kt from VRB
ガスト
No gust
降水
報告なし
その他の天気
報告なし
少しの雲 @ 3000ft AGL

RJBT 300500Z VRB02KT 9999 FEW030 26/17 Q1014

RJOY  -  八尾

観測日時
2022-09-30 05:00 (UTC) (79分前)
気温
29
露点
18
湿数
11
相対湿度
51.5%
QNH
1013hPa
推定現地気圧
1011.8hPa
推定海面気圧
1012.9hPa
体感温度
23.5
(無風時)
26.1
HI
29.8
気温前日比
+3
体感温度前日比
+2.5
HI前日比
+3.7
水平視程
>10000m
鉛直視程
データなし
雲底高度
No dense clouds
V/I
VMC (VFR)
RVR
No RVR data
卓越風
4kt from VRB
ガスト
No gust
降水
報告なし
その他の天気
報告なし
少しの雲 @ 3000ft AGL / 散在する雲 @ 5000ft AGL

RJOY 300500Z VRB04KT 9999 FEW030 SCT050 29/18 Q1013

RJBD/SHM  -  南紀白浜

観測日時
2022-09-30 05:00 (UTC) (79分前)
気温
26
露点
20
湿数
6
相対湿度
69.5%
QNH
1013hPa
推定現地気圧
1002.4hPa
推定海面気圧
1012.6hPa
体感温度
20.6
(無風時)
25.1
HI
26.5
気温前日比
±0
体感温度前日比
+0.9
HI前日比
+0.2
水平視程
>10000m
鉛直視程
データなし
雲底高度
No dense clouds
V/I
VMC (VFR)
RVR
No RVR data
卓越風
6kt from 280° (230° ~ 310°)
ガスト
No gust
降水
報告なし
その他の天気
報告なし
少しの雲 @ 2500ft AGL / 散在する雲 @ 3500ft AGL

RJBD 300500Z 28006KT 230V310 9999 FEW025 SCT035 26/20 Q1013

RJBM  -  舞鶴基地

観測日時
2022-09-30 05:00 (UTC) (79分前)
気温
26
露点
19
湿数
7
相対湿度
65.4%
QNH
1014.2hPa
推定現地気圧
1013.5hPa
推定海面気圧
1014.2hPa
体感温度
20.4
(無風時)
24.9
HI
26.4
気温前日比
±0
体感温度前日比
+1.2
HI前日比
+0.2
水平視程
>10000m
鉛直視程
データなし
雲底高度
No dense clouds
V/I
VMC (VFR)
RVR
No RVR data
卓越風
6kt from 310° (260° ~ 40°)
ガスト
No gust
降水
報告なし
その他の天気
報告なし
少しの(1/8) 積雲 @ 3000ft AGL

RJBM 300500Z 31006KT 260V040 9999 FEW030 26/19 Q1014 RMK 1CU030 A2995

53.6msec